sensor_id;sensor_type;location;lat;lon;timestamp;P1;durP1;ratioP1;P2;durP2;ratioP2
41343;SDS011;27089;50.022;7.604;2023-12-20T00:01:55;0.30;;;0.30;;
41343;SDS011;27089;50.022;7.604;2023-12-20T00:04:22;0.47;;;0.30;;
41343;SDS011;27089;50.022;7.604;2023-12-20T00:06:49;0.60;;;0.40;;
41343;SDS011;27089;50.022;7.604;2023-12-20T00:09:17;0.60;;;0.50;;
41343;SDS011;27089;50.022;7.604;2023-12-20T00:11:45;0.40;;;0.30;;
41343;SDS011;27089;50.022;7.604;2023-12-20T00:14:12;0.40;;;0.40;;
41343;SDS011;27089;50.022;7.604;2023-12-20T00:16:38;0.40;;;0.30;;
41343;SDS011;27089;50.022;7.604;2023-12-20T00:19:05;0.40;;;0.40;;
41343;SDS011;27089;50.022;7.604;2023-12-20T00:21:32;0.50;;;0.40;;
41343;SDS011;27089;50.022;7.604;2023-12-20T00:23:59;0.40;;;0.40;;
41343;SDS011;27089;50.022;7.604;2023-12-20T00:26:26;0.40;;;0.30;;
41343;SDS011;27089;50.022;7.604;2023-12-20T00:28:55;0.50;;;0.40;;
41343;SDS011;27089;50.022;7.604;2023-12-20T00:31:22;0.57;;;0.33;;
41343;SDS011;27089;50.022;7.604;2023-12-20T00:33:49;0.30;;;0.30;;
41343;SDS011;27089;50.022;7.604;2023-12-20T00:36:18;0.50;;;0.50;;
41343;SDS011;27089;50.022;7.604;2023-12-20T00:38:45;1.07;;;0.33;;
41343;SDS011;27089;50.022;7.604;2023-12-20T00:41:12;0.50;;;0.47;;
41343;SDS011;27089;50.022;7.604;2023-12-20T00:43:39;0.73;;;0.43;;
41343;SDS011;27089;50.022;7.604;2023-12-20T00:46:07;0.30;;;0.30;;
41343;SDS011;27089;50.022;7.604;2023-12-20T00:48:34;0.30;;;0.30;;
41343;SDS011;27089;50.022;7.604;2023-12-20T00:51:01;0.67;;;0.30;;
41343;SDS011;27089;50.022;7.604;2023-12-20T00:53:28;0.40;;;0.40;;
41343;SDS011;27089;50.022;7.604;2023-12-20T00:55:55;0.33;;;0.33;;
41343;SDS011;27089;50.022;7.604;2023-12-20T00:58:23;1.13;;;0.40;;
41343;SDS011;27089;50.022;7.604;2023-12-20T01:00:51;0.80;;;0.50;;
41343;SDS011;27089;50.022;7.604;2023-12-20T01:03:20;0.27;;;0.27;;
41343;SDS011;27089;50.022;7.604;2023-12-20T01:05:47;0.20;;;0.20;;
41343;SDS011;27089;50.022;7.604;2023-12-20T01:08:14;0.37;;;0.30;;
41343;SDS011;27089;50.022;7.604;2023-12-20T01:10:41;0.47;;;0.37;;
41343;SDS011;27089;50.022;7.604;2023-12-20T01:13:08;0.33;;;0.30;;
41343;SDS011;27089;50.022;7.604;2023-12-20T01:15:35;0.37;;;0.37;;
41343;SDS011;27089;50.022;7.604;2023-12-20T01:18:02;0.30;;;0.30;;
41343;SDS011;27089;50.022;7.604;2023-12-20T01:20:31;0.40;;;0.30;;
41343;SDS011;27089;50.022;7.604;2023-12-20T01:22:58;0.40;;;0.30;;
41343;SDS011;27089;50.022;7.604;2023-12-20T01:25:25;1.07;;;0.50;;
41343;SDS011;27089;50.022;7.604;2023-12-20T01:27:52;0.53;;;0.50;;
41343;SDS011;27089;50.022;7.604;2023-12-20T01:30:19;0.50;;;0.50;;
41343;SDS011;27089;50.022;7.604;2023-12-20T01:32:46;0.67;;;0.40;;
41343;SDS011;27089;50.022;7.604;2023-12-20T01:35:13;0.53;;;0.50;;
41343;SDS011;27089;50.022;7.604;2023-12-20T01:37:42;1.20;;;0.57;;
41343;SDS011;27089;50.022;7.604;2023-12-20T01:40:09;0.50;;;0.50;;
41343;SDS011;27089;50.022;7.604;2023-12-20T01:42:36;0.50;;;0.40;;
41343;SDS011;27089;50.022;7.604;2023-12-20T01:45:04;0.30;;;0.30;;
41343;SDS011;27089;50.022;7.604;2023-12-20T01:47:31;0.40;;;0.40;;
41343;SDS011;27089;50.022;7.604;2023-12-20T01:49:58;0.50;;;0.50;;
41343;SDS011;27089;50.022;7.604;2023-12-20T01:52:28;0.40;;;0.40;;
41343;SDS011;27089;50.022;7.604;2023-12-20T01:54:58;0.50;;;0.40;;
41343;SDS011;27089;50.022;7.604;2023-12-20T01:57:28;0.47;;;0.40;;
41343;SDS011;27089;50.022;7.604;2023-12-20T01:59:55;0.40;;;0.40;;
41343;SDS011;27089;50.022;7.604;2023-12-20T02:02:22;1.03;;;0.40;;
41343;SDS011;27089;50.022;7.604;2023-12-20T02:04:50;0.37;;;0.37;;
41343;SDS011;27089;50.022;7.604;2023-12-20T02:07:17;0.40;;;0.40;;
41343;SDS011;27089;50.022;7.604;2023-12-20T02:09:45;0.53;;;0.47;;
41343;SDS011;27089;50.022;7.604;2023-12-20T02:12:14;1.90;;;0.80;;
41343;SDS011;27089;50.022;7.604;2023-12-20T02:14:42;0.77;;;0.70;;
41343;SDS011;27089;50.022;7.604;2023-12-20T02:17:09;0.60;;;0.50;;
41343;SDS011;27089;50.022;7.604;2023-12-20T02:19:36;0.80;;;0.63;;
41343;SDS011;27089;50.022;7.604;2023-12-20T02:22:08;0.80;;;0.70;;
41343;SDS011;27089;50.022;7.604;2023-12-20T02:24:35;1.13;;;1.03;;
41343;SDS011;27089;50.022;7.604;2023-12-20T02:27:03;0.83;;;0.83;;
41343;SDS011;27089;50.022;7.604;2023-12-20T02:29:32;2.10;;;1.40;;
41343;SDS011;27089;50.022;7.604;2023-12-20T02:31:59;2.47;;;1.70;;
41343;SDS011;27089;50.022;7.604;2023-12-20T02:34:26;2.30;;;1.23;;
41343;SDS011;27089;50.022;7.604;2023-12-20T02:36:53;1.80;;;1.60;;
41343;SDS011;27089;50.022;7.604;2023-12-20T02:39:21;3.63;;;2.07;;
41343;SDS011;27089;50.022;7.604;2023-12-20T02:41:49;1.70;;;1.50;;
41343;SDS011;27089;50.022;7.604;2023-12-20T02:44:16;2.47;;;1.13;;
41343;SDS011;27089;50.022;7.604;2023-12-20T02:46:43;1.93;;;1.37;;
41343;SDS011;27089;50.022;7.604;2023-12-20T02:49:10;1.33;;;1.10;;
41343;SDS011;27089;50.022;7.604;2023-12-20T02:51:37;1.47;;;1.37;;
41343;SDS011;27089;50.022;7.604;2023-12-20T02:54:04;1.27;;;1.17;;
41343;SDS011;27089;50.022;7.604;2023-12-20T02:56:33;1.23;;;1.13;;
41343;SDS011;27089;50.022;7.604;2023-12-20T02:59:00;1.50;;;1.30;;
41343;SDS011;27089;50.022;7.604;2023-12-20T03:01:27;1.57;;;1.40;;
41343;SDS011;27089;50.022;7.604;2023-12-20T03:03:54;1.40;;;1.03;;
41343;SDS011;27089;50.022;7.604;2023-12-20T03:06:21;1.27;;;1.10;;
41343;SDS011;27089;50.022;7.604;2023-12-20T03:08:48;1.13;;;1.00;;
41343;SDS011;27089;50.022;7.604;2023-12-20T03:11:15;1.13;;;1.00;;
41343;SDS011;27089;50.022;7.604;2023-12-20T03:13:43;0.90;;;0.90;;
41343;SDS011;27089;50.022;7.604;2023-12-20T03:16:11;1.07;;;0.90;;
41343;SDS011;27089;50.022;7.604;2023-12-20T03:18:38;1.43;;;0.93;;
41343;SDS011;27089;50.022;7.604;2023-12-20T03:21:05;1.00;;;0.90;;
41343;SDS011;27089;50.022;7.604;2023-12-20T03:23:33;1.50;;;0.93;;
41343;SDS011;27089;50.022;7.604;2023-12-20T03:25:59;1.27;;;0.90;;
41343;SDS011;27089;50.022;7.604;2023-12-20T03:28:27;1.00;;;0.90;;
41343;SDS011;27089;50.022;7.604;2023-12-20T03:30:55;1.73;;;1.00;;
41343;SDS011;27089;50.022;7.604;2023-12-20T03:33:22;2.00;;;1.10;;
41343;SDS011;27089;50.022;7.604;2023-12-20T03:35:49;1.73;;;1.20;;
41343;SDS011;27089;50.022;7.604;2023-12-20T03:38:16;1.40;;;1.30;;
41343;SDS011;27089;50.022;7.604;2023-12-20T03:40:44;1.47;;;1.37;;
41343;SDS011;27089;50.022;7.604;2023-12-20T03:43:11;2.00;;;1.50;;
41343;SDS011;27089;50.022;7.604;2023-12-20T03:45:38;1.50;;;1.40;;
41343;SDS011;27089;50.022;7.604;2023-12-20T03:48:07;2.50;;;1.40;;
41343;SDS011;27089;50.022;7.604;2023-12-20T03:50:35;1.70;;;1.60;;
41343;SDS011;27089;50.022;7.604;2023-12-20T03:53:02;3.13;;;1.93;;
41343;SDS011;27089;50.022;7.604;2023-12-20T03:55:29;3.20;;;1.70;;
41343;SDS011;27089;50.022;7.604;2023-12-20T03:57:56;1.50;;;1.30;;
41343;SDS011;27089;50.022;7.604;2023-12-20T04:00:23;3.03;;;1.10;;
41343;SDS011;27089;50.022;7.604;2023-12-20T04:02:50;4.57;;;1.70;;
41343;SDS011;27089;50.022;7.604;2023-12-20T04:05:19;3.67;;;1.30;;
41343;SDS011;27089;50.022;7.604;2023-12-20T04:07:45;6.60;;;1.30;;
41343;SDS011;27089;50.022;7.604;2023-12-20T04:10:12;4.17;;;1.70;;
41343;SDS011;27089;50.022;7.604;2023-12-20T04:12:39;2.27;;;1.00;;
41343;SDS011;27089;50.022;7.604;2023-12-20T04:15:06;5.67;;;1.20;;
41343;SDS011;27089;50.022;7.604;2023-12-20T04:17:37;3.97;;;1.03;;
41343;SDS011;27089;50.022;7.604;2023-12-20T04:20:04;1.60;;;1.03;;
41343;SDS011;27089;50.022;7.604;2023-12-20T04:22:33;3.87;;;1.40;;
41343;SDS011;27089;50.022;7.604;2023-12-20T04:25:00;2.70;;;1.30;;
41343;SDS011;27089;50.022;7.604;2023-12-20T04:27:27;3.03;;;1.20;;
41343;SDS011;27089;50.022;7.604;2023-12-20T04:29:56;3.73;;;1.80;;
41343;SDS011;27089;50.022;7.604;2023-12-20T04:32:23;3.23;;;1.13;;
41343;SDS011;27089;50.022;7.604;2023-12-20T04:34:50;3.87;;;1.20;;
41343;SDS011;27089;50.022;7.604;2023-12-20T04:37:17;4.97;;;1.40;;
41343;SDS011;27089;50.022;7.604;2023-12-20T04:39:45;3.33;;;1.30;;
41343;SDS011;27089;50.022;7.604;2023-12-20T04:42:12;2.93;;;1.30;;
41343;SDS011;27089;50.022;7.604;2023-12-20T04:44:39;3.33;;;1.30;;
41343;SDS011;27089;50.022;7.604;2023-12-20T04:47:06;6.70;;;1.63;;
41343;SDS011;27089;50.022;7.604;2023-12-20T04:49:33;3.10;;;1.50;;
41343;SDS011;27089;50.022;7.604;2023-12-20T04:52:00;5.23;;;1.60;;
41343;SDS011;27089;50.022;7.604;2023-12-20T04:54:27;4.73;;;1.70;;
41343;SDS011;27089;50.022;7.604;2023-12-20T04:56:56;2.40;;;1.20;;
41343;SDS011;27089;50.022;7.604;2023-12-20T04:59:23;6.80;;;1.70;;
41343;SDS011;27089;50.022;7.604;2023-12-20T05:01:51;4.20;;;1.20;;
41343;SDS011;27089;50.022;7.604;2023-12-20T05:04:18;5.07;;;1.23;;
41343;SDS011;27089;50.022;7.604;2023-12-20T05:06:45;6.47;;;1.67;;
41343;SDS011;27089;50.022;7.604;2023-12-20T05:09:12;4.80;;;1.30;;
41343;SDS011;27089;50.022;7.604;2023-12-20T05:11:40;4.33;;;1.60;;
41343;SDS011;27089;50.022;7.604;2023-12-20T05:14:08;4.30;;;1.10;;
41343;SDS011;27089;50.022;7.604;2023-12-20T05:16:35;3.10;;;1.13;;
41343;SDS011;27089;50.022;7.604;2023-12-20T05:19:02;6.07;;;1.80;;
41343;SDS011;27089;50.022;7.604;2023-12-20T05:21:31;6.20;;;1.37;;
41343;SDS011;27089;50.022;7.604;2023-12-20T05:23:58;4.07;;;1.53;;
41343;SDS011;27089;50.022;7.604;2023-12-20T05:26:26;4.80;;;1.77;;
41343;SDS011;27089;50.022;7.604;2023-12-20T05:28:54;5.23;;;1.43;;
41343;SDS011;27089;50.022;7.604;2023-12-20T05:31:22;3.73;;;1.30;;
41343;SDS011;27089;50.022;7.604;2023-12-20T05:33:49;6.97;;;1.57;;
41343;SDS011;27089;50.022;7.604;2023-12-20T05:36:16;3.37;;;1.60;;
41343;SDS011;27089;50.022;7.604;2023-12-20T05:38:44;9.63;;;3.43;;
41343;SDS011;27089;50.022;7.604;2023-12-20T05:41:11;8.47;;;3.77;;
41343;SDS011;27089;50.022;7.604;2023-12-20T05:43:38;6.30;;;2.30;;
41343;SDS011;27089;50.022;7.604;2023-12-20T05:46:05;5.10;;;1.40;;
41343;SDS011;27089;50.022;7.604;2023-12-20T05:48:33;6.47;;;1.40;;
41343;SDS011;27089;50.022;7.604;2023-12-20T05:51:01;2.10;;;1.30;;
41343;SDS011;27089;50.022;7.604;2023-12-20T05:53:29;2.90;;;1.50;;
41343;SDS011;27089;50.022;7.604;2023-12-20T05:55:56;3.33;;;1.73;;
41343;SDS011;27089;50.022;7.604;2023-12-20T05:58:23;3.17;;;1.77;;
41343;SDS011;27089;50.022;7.604;2023-12-20T06:00:49;3.80;;;2.00;;
41343;SDS011;27089;50.022;7.604;2023-12-20T06:03:16;4.63;;;2.40;;
41343;SDS011;27089;50.022;7.604;2023-12-20T06:05:45;4.60;;;1.60;;
41343;SDS011;27089;50.022;7.604;2023-12-20T06:08:12;6.30;;;1.93;;
41343;SDS011;27089;50.022;7.604;2023-12-20T06:10:39;6.17;;;1.57;;
41343;SDS011;27089;50.022;7.604;2023-12-20T06:13:06;2.63;;;1.23;;
41343;SDS011;27089;50.022;7.604;2023-12-20T06:15:33;5.03;;;1.40;;
41343;SDS011;27089;50.022;7.604;2023-12-20T06:18:00;2.73;;;1.40;;
41343;SDS011;27089;50.022;7.604;2023-12-20T06:20:27;4.23;;;1.50;;
41343;SDS011;27089;50.022;7.604;2023-12-20T06:22:55;3.70;;;1.37;;
41343;SDS011;27089;50.022;7.604;2023-12-20T06:25:22;7.67;;;1.77;;
41343;SDS011;27089;50.022;7.604;2023-12-20T06:27:49;6.03;;;1.60;;
41343;SDS011;27089;50.022;7.604;2023-12-20T06:30:16;6.07;;;1.63;;
41343;SDS011;27089;50.022;7.604;2023-12-20T06:32:43;6.90;;;1.67;;
41343;SDS011;27089;50.022;7.604;2023-12-20T06:35:12;6.53;;;1.93;;
41343;SDS011;27089;50.022;7.604;2023-12-20T06:37:39;23.93;;;11.40;;
41343;SDS011;27089;50.022;7.604;2023-12-20T06:40:09;13.87;;;6.47;;
41343;SDS011;27089;50.022;7.604;2023-12-20T06:42:36;12.90;;;7.30;;
41343;SDS011;27089;50.022;7.604;2023-12-20T06:45:04;9.80;;;5.03;;
41343;SDS011;27089;50.022;7.604;2023-12-20T06:47:31;7.03;;;2.50;;
41343;SDS011;27089;50.022;7.604;2023-12-20T06:49:58;5.63;;;2.33;;
41343;SDS011;27089;50.022;7.604;2023-12-20T06:52:25;6.90;;;1.60;;
41343;SDS011;27089;50.022;7.604;2023-12-20T06:54:53;4.40;;;1.43;;
41343;SDS011;27089;50.022;7.604;2023-12-20T06:57:22;5.13;;;1.80;;
41343;SDS011;27089;50.022;7.604;2023-12-20T06:59:51;5.13;;;1.50;;
41343;SDS011;27089;50.022;7.604;2023-12-20T07:02:19;4.63;;;1.70;;
41343;SDS011;27089;50.022;7.604;2023-12-20T07:04:47;4.97;;;2.20;;
41343;SDS011;27089;50.022;7.604;2023-12-20T07:07:14;6.37;;;3.63;;
41343;SDS011;27089;50.022;7.604;2023-12-20T07:09:41;10.17;;;4.90;;
41343;SDS011;27089;50.022;7.604;2023-12-20T07:12:08;9.43;;;3.23;;
41343;SDS011;27089;50.022;7.604;2023-12-20T07:14:36;4.93;;;2.10;;
41343;SDS011;27089;50.022;7.604;2023-12-20T07:17:03;3.63;;;1.90;;
41343;SDS011;27089;50.022;7.604;2023-12-20T07:19:32;8.67;;;4.30;;
41343;SDS011;27089;50.022;7.604;2023-12-20T07:21:59;9.23;;;2.97;;
41343;SDS011;27089;50.022;7.604;2023-12-20T07:24:26;6.03;;;2.33;;
41343;SDS011;27089;50.022;7.604;2023-12-20T07:26:53;7.03;;;2.30;;
41343;SDS011;27089;50.022;7.604;2023-12-20T07:29:20;5.70;;;2.10;;
41343;SDS011;27089;50.022;7.604;2023-12-20T07:31:48;7.27;;;2.00;;
41343;SDS011;27089;50.022;7.604;2023-12-20T07:34:17;4.37;;;1.97;;
41343;SDS011;27089;50.022;7.604;2023-12-20T07:36:45;7.27;;;2.40;;
41343;SDS011;27089;50.022;7.604;2023-12-20T07:39:12;7.53;;;2.63;;
41343;SDS011;27089;50.022;7.604;2023-12-20T07:41:39;6.17;;;1.90;;
41343;SDS011;27089;50.022;7.604;2023-12-20T07:44:06;5.37;;;1.80;;
41343;SDS011;27089;50.022;7.604;2023-12-20T07:46:33;5.90;;;3.90;;
41343;SDS011;27089;50.022;7.604;2023-12-20T07:49:02;8.17;;;3.60;;
41343;SDS011;27089;50.022;7.604;2023-12-20T07:51:30;7.03;;;4.30;;
41343;SDS011;27089;50.022;7.604;2023-12-20T07:53:57;11.60;;;4.53;;
41343;SDS011;27089;50.022;7.604;2023-12-20T07:56:24;16.40;;;6.67;;
41343;SDS011;27089;50.022;7.604;2023-12-20T07:58:50;8.50;;;4.13;;
41343;SDS011;27089;50.022;7.604;2023-12-20T08:01:17;6.23;;;2.90;;
41343;SDS011;27089;50.022;7.604;2023-12-20T08:03:44;7.83;;;2.90;;
41343;SDS011;27089;50.022;7.604;2023-12-20T08:06:14;6.83;;;2.70;;
41343;SDS011;27089;50.022;7.604;2023-12-20T08:08:42;5.17;;;2.57;;
41343;SDS011;27089;50.022;7.604;2023-12-20T08:11:09;6.77;;;2.30;;
41343;SDS011;27089;50.022;7.604;2023-12-20T08:13:36;7.53;;;2.60;;
41343;SDS011;27089;50.022;7.604;2023-12-20T08:16:02;9.73;;;5.40;;
41343;SDS011;27089;50.022;7.604;2023-12-20T08:18:30;7.97;;;3.30;;
41343;SDS011;27089;50.022;7.604;2023-12-20T08:20:57;6.90;;;2.73;;
41343;SDS011;27089;50.022;7.604;2023-12-20T08:23:25;8.23;;;2.73;;
41343;SDS011;27089;50.022;7.604;2023-12-20T08:25:52;6.63;;;2.70;;
41343;SDS011;27089;50.022;7.604;2023-12-20T08:28:19;9.23;;;5.63;;
41343;SDS011;27089;50.022;7.604;2023-12-20T08:30:46;7.57;;;2.70;;
41343;SDS011;27089;50.022;7.604;2023-12-20T08:33:13;9.93;;;3.50;;
41343;SDS011;27089;50.022;7.604;2023-12-20T08:35:40;8.60;;;2.90;;
41343;SDS011;27089;50.022;7.604;2023-12-20T08:38:07;6.17;;;2.60;;
41343;SDS011;27089;50.022;7.604;2023-12-20T08:40:36;7.30;;;2.73;;
41343;SDS011;27089;50.022;7.604;2023-12-20T08:43:03;12.60;;;5.77;;
41343;SDS011;27089;50.022;7.604;2023-12-20T08:45:30;10.57;;;6.07;;
41343;SDS011;27089;50.022;7.604;2023-12-20T08:47:57;10.30;;;4.00;;
41343;SDS011;27089;50.022;7.604;2023-12-20T08:50:25;11.20;;;4.93;;
41343;SDS011;27089;50.022;7.604;2023-12-20T08:52:52;12.43;;;4.27;;
41343;SDS011;27089;50.022;7.604;2023-12-20T08:55:19;11.93;;;3.67;;
41343;SDS011;27089;50.022;7.604;2023-12-20T08:57:47;8.33;;;2.77;;
41343;SDS011;27089;50.022;7.604;2023-12-20T09:00:15;5.40;;;2.70;;
41343;SDS011;27089;50.022;7.604;2023-12-20T09:02:45;5.00;;;2.30;;
41343;SDS011;27089;50.022;7.604;2023-12-20T09:05:12;5.77;;;2.50;;
41343;SDS011;27089;50.022;7.604;2023-12-20T09:07:39;5.53;;;2.97;;
41343;SDS011;27089;50.022;7.604;2023-12-20T09:10:06;9.20;;;2.70;;
41343;SDS011;27089;50.022;7.604;2023-12-20T09:12:33;5.40;;;2.43;;
41343;SDS011;27089;50.022;7.604;2023-12-20T09:15:04;6.83;;;2.60;;
41343;SDS011;27089;50.022;7.604;2023-12-20T09:17:32;7.40;;;2.50;;
41343;SDS011;27089;50.022;7.604;2023-12-20T09:19:59;5.20;;;2.20;;
41343;SDS011;27089;50.022;7.604;2023-12-20T09:22:26;7.20;;;2.90;;
41343;SDS011;27089;50.022;7.604;2023-12-20T09:24:52;6.50;;;2.50;;
41343;SDS011;27089;50.022;7.604;2023-12-20T09:27:19;8.00;;;2.60;;
41343;SDS011;27089;50.022;7.604;2023-12-20T09:29:47;6.63;;;2.80;;
41343;SDS011;27089;50.022;7.604;2023-12-20T09:32:16;6.63;;;2.40;;
41343;SDS011;27089;50.022;7.604;2023-12-20T09:34:43;7.97;;;2.60;;
41343;SDS011;27089;50.022;7.604;2023-12-20T09:37:10;6.67;;;2.80;;
41343;SDS011;27089;50.022;7.604;2023-12-20T09:39:37;7.47;;;2.67;;
41343;SDS011;27089;50.022;7.604;2023-12-20T09:42:04;7.33;;;2.67;;
41343;SDS011;27089;50.022;7.604;2023-12-20T09:44:32;7.80;;;2.70;;
41343;SDS011;27089;50.022;7.604;2023-12-20T09:47:01;8.57;;;2.90;;
41343;SDS011;27089;50.022;7.604;2023-12-20T09:49:30;8.67;;;2.40;;
41343;SDS011;27089;50.022;7.604;2023-12-20T09:51:59;7.73;;;2.33;;
41343;SDS011;27089;50.022;7.604;2023-12-20T09:54:27;9.37;;;2.60;;
41343;SDS011;27089;50.022;7.604;2023-12-20T09:56:55;7.93;;;2.93;;
41343;SDS011;27089;50.022;7.604;2023-12-20T09:59:22;8.67;;;2.50;;
41343;SDS011;27089;50.022;7.604;2023-12-20T10:01:49;9.50;;;2.60;;
41343;SDS011;27089;50.022;7.604;2023-12-20T10:04:17;7.70;;;2.70;;
41343;SDS011;27089;50.022;7.604;2023-12-20T10:06:46;6.37;;;2.23;;
41343;SDS011;27089;50.022;7.604;2023-12-20T10:09:13;5.63;;;2.00;;
41343;SDS011;27089;50.022;7.604;2023-12-20T10:11:40;7.47;;;2.50;;
41343;SDS011;27089;50.022;7.604;2023-12-20T10:14:07;5.03;;;2.40;;
41343;SDS011;27089;50.022;7.604;2023-12-20T10:16:36;9.63;;;2.53;;
41343;SDS011;27089;50.022;7.604;2023-12-20T10:19:03;6.40;;;2.53;;
41343;SDS011;27089;50.022;7.604;2023-12-20T10:21:30;9.27;;;3.30;;
41343;SDS011;27089;50.022;7.604;2023-12-20T10:23:58;6.63;;;2.63;;
41343;SDS011;27089;50.022;7.604;2023-12-20T10:26:27;6.87;;;2.40;;
41343;SDS011;27089;50.022;7.604;2023-12-20T10:28:55;9.10;;;2.70;;
41343;SDS011;27089;50.022;7.604;2023-12-20T10:31:26;7.73;;;3.53;;
41343;SDS011;27089;50.022;7.604;2023-12-20T10:33:55;7.87;;;3.33;;
41343;SDS011;27089;50.022;7.604;2023-12-20T10:36:23;9.37;;;3.77;;
41343;SDS011;27089;50.022;7.604;2023-12-20T10:38:52;4.87;;;2.63;;
41343;SDS011;27089;50.022;7.604;2023-12-20T10:41:23;7.73;;;2.37;;
41343;SDS011;27089;50.022;7.604;2023-12-20T10:43:53;7.93;;;2.70;;
41343;SDS011;27089;50.022;7.604;2023-12-20T10:46:22;7.10;;;2.60;;
41343;SDS011;27089;50.022;7.604;2023-12-20T10:48:51;6.43;;;3.00;;
41343;SDS011;27089;50.022;7.604;2023-12-20T10:51:20;7.57;;;3.03;;
41343;SDS011;27089;50.022;7.604;2023-12-20T10:53:48;8.10;;;2.50;;
41343;SDS011;27089;50.022;7.604;2023-12-20T10:56:15;7.17;;;2.60;;
41343;SDS011;27089;50.022;7.604;2023-12-20T10:58:46;4.23;;;2.40;;
41343;SDS011;27089;50.022;7.604;2023-12-20T11:01:14;6.40;;;2.57;;
41343;SDS011;27089;50.022;7.604;2023-12-20T11:03:43;10.27;;;3.60;;
41343;SDS011;27089;50.022;7.604;2023-12-20T11:06:18;12.27;;;4.00;;
41343;SDS011;27089;50.022;7.604;2023-12-20T11:08:54;9.07;;;4.07;;
41343;SDS011;27089;50.022;7.604;2023-12-20T11:11:35;9.23;;;3.20;;
41343;SDS011;27089;50.022;7.604;2023-12-20T11:14:11;11.30;;;3.63;;
41343;SDS011;27089;50.022;7.604;2023-12-20T11:16:45;12.33;;;5.40;;
41343;SDS011;27089;50.022;7.604;2023-12-20T11:19:12;10.93;;;3.77;;
41343;SDS011;27089;50.022;7.604;2023-12-20T11:21:40;13.50;;;4.87;;
41343;SDS011;27089;50.022;7.604;2023-12-20T11:24:07;9.13;;;2.87;;
41343;SDS011;27089;50.022;7.604;2023-12-20T11:26:35;6.73;;;2.87;;
41343;SDS011;27089;50.022;7.604;2023-12-20T11:31:59;6.77;;;2.97;;
41343;SDS011;27089;50.022;7.604;2023-12-20T11:34:26;5.30;;;2.50;;
41343;SDS011;27089;50.022;7.604;2023-12-20T11:36:57;5.40;;;2.17;;
41343;SDS011;27089;50.022;7.604;2023-12-20T11:39:26;6.10;;;2.47;;
41343;SDS011;27089;50.022;7.604;2023-12-20T11:41:54;7.63;;;2.80;;
41343;SDS011;27089;50.022;7.604;2023-12-20T11:44:22;9.47;;;2.50;;
41343;SDS011;27089;50.022;7.604;2023-12-20T11:46:53;6.63;;;2.70;;
41343;SDS011;27089;50.022;7.604;2023-12-20T11:49:24;6.33;;;2.67;;
41343;SDS011;27089;50.022;7.604;2023-12-20T11:51:51;7.80;;;2.63;;
41343;SDS011;27089;50.022;7.604;2023-12-20T11:54:18;8.07;;;3.00;;
41343;SDS011;27089;50.022;7.604;2023-12-20T11:56:45;4.77;;;2.87;;
41343;SDS011;27089;50.022;7.604;2023-12-20T11:59:13;7.17;;;3.63;;
41343;SDS011;27089;50.022;7.604;2023-12-20T12:01:40;10.00;;;3.20;;
41343;SDS011;27089;50.022;7.604;2023-12-20T12:04:15;6.70;;;2.90;;
41343;SDS011;27089;50.022;7.604;2023-12-20T12:06:43;8.33;;;2.50;;
41343;SDS011;27089;50.022;7.604;2023-12-20T12:09:10;9.87;;;2.77;;
41343;SDS011;27089;50.022;7.604;2023-12-20T12:11:37;7.63;;;3.23;;
41343;SDS011;27089;50.022;7.604;2023-12-20T12:14:04;8.33;;;2.90;;
41343;SDS011;27089;50.022;7.604;2023-12-20T12:16:33;7.00;;;2.87;;
41343;SDS011;27089;50.022;7.604;2023-12-20T12:19:00;11.53;;;3.70;;
41343;SDS011;27089;50.022;7.604;2023-12-20T12:21:28;7.00;;;3.13;;
41343;SDS011;27089;50.022;7.604;2023-12-20T12:24:05;9.07;;;3.20;;
41343;SDS011;27089;50.022;7.604;2023-12-20T12:26:33;7.53;;;3.17;;
41343;SDS011;27089;50.022;7.604;2023-12-20T12:29:00;9.13;;;3.53;;
41343;SDS011;27089;50.022;7.604;2023-12-20T12:31:27;10.27;;;3.43;;
41343;SDS011;27089;50.022;7.604;2023-12-20T12:33:55;11.70;;;4.50;;
41343;SDS011;27089;50.022;7.604;2023-12-20T12:36:22;11.13;;;3.40;;
41343;SDS011;27089;50.022;7.604;2023-12-20T12:38:50;5.70;;;2.50;;
41343;SDS011;27089;50.022;7.604;2023-12-20T12:41:17;10.57;;;2.73;;
41343;SDS011;27089;50.022;7.604;2023-12-20T12:43:44;5.53;;;2.23;;
41343;SDS011;27089;50.022;7.604;2023-12-20T12:46:11;6.77;;;2.40;;
41343;SDS011;27089;50.022;7.604;2023-12-20T12:48:38;5.73;;;2.40;;
41343;SDS011;27089;50.022;7.604;2023-12-20T12:51:05;5.70;;;2.67;;
41343;SDS011;27089;50.022;7.604;2023-12-20T12:53:37;5.80;;;2.40;;
41343;SDS011;27089;50.022;7.604;2023-12-20T12:56:06;7.57;;;2.27;;
41343;SDS011;27089;50.022;7.604;2023-12-20T12:58:33;7.20;;;2.10;;
41343;SDS011;27089;50.022;7.604;2023-12-20T13:01:00;9.83;;;2.87;;
41343;SDS011;27089;50.022;7.604;2023-12-20T13:03:28;7.57;;;2.93;;
41343;SDS011;27089;50.022;7.604;2023-12-20T13:05:55;6.00;;;2.67;;
41343;SDS011;27089;50.022;7.604;2023-12-20T13:08:22;6.70;;;2.17;;
41343;SDS011;27089;50.022;7.604;2023-12-20T13:10:49;9.17;;;3.03;;
41343;SDS011;27089;50.022;7.604;2023-12-20T13:13:18;6.30;;;2.30;;
41343;SDS011;27089;50.022;7.604;2023-12-20T13:15:44;6.33;;;1.93;;
41343;SDS011;27089;50.022;7.604;2023-12-20T13:18:16;9.47;;;2.00;;
41343;SDS011;27089;50.022;7.604;2023-12-20T13:20:43;5.80;;;2.27;;
41343;SDS011;27089;50.022;7.604;2023-12-20T13:23:10;6.23;;;2.17;;
41343;SDS011;27089;50.022;7.604;2023-12-20T13:25:37;6.77;;;1.90;;
41343;SDS011;27089;50.022;7.604;2023-12-20T13:28:04;3.53;;;1.83;;
41343;SDS011;27089;50.022;7.604;2023-12-20T13:30:33;4.70;;;1.83;;
41343;SDS011;27089;50.022;7.604;2023-12-20T13:33:01;4.07;;;1.83;;
41343;SDS011;27089;50.022;7.604;2023-12-20T13:35:27;4.33;;;1.63;;
41343;SDS011;27089;50.022;7.604;2023-12-20T13:37:55;6.60;;;2.37;;
41343;SDS011;27089;50.022;7.604;2023-12-20T13:40:22;6.07;;;1.87;;
41343;SDS011;27089;50.022;7.604;2023-12-20T13:42:49;4.10;;;1.90;;
41343;SDS011;27089;50.022;7.604;2023-12-20T13:45:16;12.50;;;2.33;;
41343;SDS011;27089;50.022;7.604;2023-12-20T13:47:45;7.20;;;2.60;;
41343;SDS011;27089;50.022;7.604;2023-12-20T13:50:12;10.30;;;4.73;;
41343;SDS011;27089;50.022;7.604;2023-12-20T13:52:39;5.30;;;3.20;;
41343;SDS011;27089;50.022;7.604;2023-12-20T13:55:06;6.60;;;2.03;;
41343;SDS011;27089;50.022;7.604;2023-12-20T13:57:34;8.87;;;2.00;;
41343;SDS011;27089;50.022;7.604;2023-12-20T14:00:02;5.80;;;1.40;;
41343;SDS011;27089;50.022;7.604;2023-12-20T14:02:30;5.70;;;1.60;;
41343;SDS011;27089;50.022;7.604;2023-12-20T14:04:58;3.50;;;1.47;;
41343;SDS011;27089;50.022;7.604;2023-12-20T14:07:26;4.77;;;1.70;;
41343;SDS011;27089;50.022;7.604;2023-12-20T14:09:54;3.57;;;1.30;;
41343;SDS011;27089;50.022;7.604;2023-12-20T14:12:21;6.17;;;1.50;;
41343;SDS011;27089;50.022;7.604;2023-12-20T14:14:49;10.67;;;1.97;;
41343;SDS011;27089;50.022;7.604;2023-12-20T14:17:15;5.93;;;2.00;;
41343;SDS011;27089;50.022;7.604;2023-12-20T14:19:43;5.97;;;2.03;;
41343;SDS011;27089;50.022;7.604;2023-12-20T14:22:11;7.03;;;2.10;;
41343;SDS011;27089;50.022;7.604;2023-12-20T14:24:42;5.93;;;1.50;;
41343;SDS011;27089;50.022;7.604;2023-12-20T14:27:09;4.73;;;1.73;;
41343;SDS011;27089;50.022;7.604;2023-12-20T14:29:36;4.67;;;1.63;;
41343;SDS011;27089;50.022;7.604;2023-12-20T14:32:04;4.47;;;1.63;;
41343;SDS011;27089;50.022;7.604;2023-12-20T14:34:31;6.00;;;1.97;;
41343;SDS011;27089;50.022;7.604;2023-12-20T14:36:58;5.40;;;1.50;;
41343;SDS011;27089;50.022;7.604;2023-12-20T14:39:26;6.30;;;2.00;;
41343;SDS011;27089;50.022;7.604;2023-12-20T14:41:53;5.17;;;1.80;;
41343;SDS011;27089;50.022;7.604;2023-12-20T14:44:20;6.93;;;1.80;;
41343;SDS011;27089;50.022;7.604;2023-12-20T14:46:48;4.87;;;1.63;;
41343;SDS011;27089;50.022;7.604;2023-12-20T14:49:15;10.07;;;4.50;;
41343;SDS011;27089;50.022;7.604;2023-12-20T14:51:43;11.87;;;2.57;;